Flight Track Log - Related Links

Times and Time Zones

All times are in EDT time to prevent confusion due to time zone crossing. See the RPA3457 flight status page for this flight to view local times or setup timezone preferences in your user account.

Time Position Orientation Groundspeed Altitude Reporting Facility
EDT Latitude Longitude Course Direction KTS MPH feet Rate Location/Type
Fri 08:30:00 AM 44.0002 -73.3222 194° South  Level FlightAware Approximate
Fri 08:31:00 AM 43.8437 -73.3774 195° South  Level FlightAware Approximate
Fri 08:31:04 AM 44.2903 -73.1797 200° South 255 293 10,200  Level Boston Center
Fri 08:32:00 AM 43.6879 -73.4358 195° South  Level FlightAware Approximate
Fri 08:32:04 AM 44.2003 -73.2161 196° South 278 320 13,600  Level Boston Center
Fri 08:33:00 AM 43.5340 -73.5028 198° South  Level FlightAware Approximate
Fri 08:33:04 AM 44.1189 -73.2528 198° South 299 344 16,500  Level Boston Center
Fri 08:34:00 AM 43.3772 -73.5526 197° South  Level FlightAware Approximate
Fri 08:34:04 AM 44.0500 -73.2778 195° South 311 358 18,400  Level Boston Center
Fri 08:35:00 AM 43.2223 -73.6148 194° South  Level FlightAware Approximate
Fri 08:35:16 AM 43.9494 -73.3225 198° South 338 389 21,100  Level Boston Center
Fri 08:36:00 AM 43.0672 -73.6748 200° South  Level FlightAware Approximate
Fri 08:36:16 AM 43.8367 -73.3669 196° South 353 406 23,600  Level Boston Center
Fri 08:37:16 AM 43.7342 -73.4083 196° South 370 426 25,700 1,850 Climbing Boston Center
Fri 08:38:16 AM 43.6317 -73.4497 196° South 381 438 27,300 1,650 Climbing Boston Center
Fri 08:39:16 AM 43.5250 -73.4911 196° South 387 445 29,000 1,450 Climbing Boston Center
Fri 08:40:16 AM 43.4142 -73.5319 195° South 400 460 30,200 1,100 Climbing Boston Center
Fri 08:41:16 AM 43.2933 -73.5297 179° South 420 483 31,200 1,250 Climbing Boston Center
Fri 08:42:16 AM 43.1706 -73.5275 179° South 436 502 32,700 1,400 Climbing Boston Center
Fri 08:43:16 AM 43.0372 -73.5281 180° South 441 507 34,000 650 Climbing Boston Center
Fri 08:44:16 AM 42.9161 -73.5344 182° South 434 499 34,000  Level Boston Center
Fri 08:45:16 AM 42.8100 -73.5353 180° South 433 498 34,000  Level Boston Center
Fri 08:46:16 AM 42.6764 -73.5386 181° South 438 504 34,000  Level Boston Center
Fri 08:47:16 AM 42.5658 -73.5422 181° South 438 504 34,000  Level Boston Center
Fri 08:48:16 AM 42.4306 -73.5483 182° South 438 504 34,000  Level Boston Center
Fri 08:49:16 AM 42.3094 -73.5489 180° South 439 505 34,000  Level Boston Center
Fri 08:50:16 AM 42.1844 -73.5525 181° South 439 505 34,000  Level Boston Center
Fri 08:51:16 AM 42.0636 -73.5531 180° South 439 505 34,000 250 Level Boston Center
Fri 08:52:16 AM 41.9383 -73.5619 183° South 455 524 34,500 650 Climbing Boston Center
Fri 08:53:16 AM 41.8258 -73.5656 181° South 455 524 35,300 529 Climbing Boston Center
Fri 08:55:06 AM 41.5969 -73.5728 181° South 433 498 36,000 247 Climbing New York Center
Fri 08:56:06 AM 41.4822 -73.5764 181° South 433 498 36,000  Level New York Center
Fri 08:57:05 AM 41.3614 -73.5797 181° South 433 498 36,000  Level New York Center
Fri 08:58:06 AM 41.2581 -73.6386 203° Southwest 412 474 36,000  Level New York Center
Fri 08:59:07 AM 41.1864 -73.7542 231° Southwest 396 456 36,000  Level New York Center
Fri 09:00:04 AM 41.1167 -73.8750 233° Southwest 402 463 36,000 -303 Level New York Center
Fri 09:01:06 AM 41.0533 -73.9794 231° Southwest 407 468 35,400 -1,350 Descending New York Center
Fri 09:02:04 AM 40.9836 -74.0942 231° Southwest 413 475 33,300 -2,136 Descending New York Center
Fri 09:03:04 AM 40.9094 -74.2058 229° Southwest 413 475 31,200 -2,066 Descending New York Center
Fri 09:04:06 AM 40.8397 -74.3175 230° Southwest 413 475 29,100 -1,574 Descending New York Center
Fri 09:05:06 AM 40.7717 -74.4319 232° Southwest 413 475 28,000 -650 Descending New York Center
Fri 09:06:06 AM 40.7056 -74.5406 231° Southwest 401 461 27,800 -610 Descending New York Center
Fri 09:07:04 AM 40.6394 -74.6492 231° Southwest 394 453 26,800 -1,017 Descending New York Center
Fri 09:08:04 AM 40.5736 -74.7547 231° Southwest 389 448 25,800 -984 Descending New York Center
Fri 09:09:06 AM 40.4989 -74.8622 228° Southwest 389 448 24,800 -1,050 Descending New York Center
Fri 09:10:04 AM 40.4222 -74.9694 227° Southwest 399 459 23,700 -1,068 Descending New York Center
Fri 09:11:04 AM 40.3478 -75.0739 227° Southwest 405 466 22,700 -843 Descending New York Center
Fri 09:12:05 AM 40.2728 -75.1806 227° Southwest 405 466 22,000 -347 Descending New York Center
Fri 09:13:05 AM 40.2003 -75.2819 227° Southwest 400 460 22,000  Level New York Center
Fri 09:14:06 AM 40.1342 -75.3756 227° Southwest 382 440 22,000  Level New York Center
Fri 09:15:04 AM 40.0744 -75.4639 229° Southwest 354 407 22,000 -153 Level New York Center
Fri 09:16:04 AM 40.0144 -75.5519 228° Southwest 336 387 21,700 -397 Descending New York Center
Fri 09:17:05 AM 39.9589 -75.6403 231° Southwest 330 380 21,200 -639 Descending New York Center
Fri 09:18:06 AM 39.9031 -75.7283 230° Southwest 324 373 20,400 -595 Descending New York Center
Fri 09:19:06 AM 39.8472 -75.8136 230° Southwest 318 366 20,000 -203 Descending New York Center
Fri 09:20:04 AM 39.7892 -75.9014 229° Southwest 324 373 20,000  Level New York Center
Fri 09:21:04 AM 39.7353 -75.9892 231° Southwest 318 366 20,000 -793 Level New York Center
Fri 09:22:05 AM 39.6708 -76.0789 227° Southwest 318 366 18,400 -1,388 Descending New York Center
Fri 09:23:05 AM 39.6256 -76.1564 233° Southwest 313 360 17,200 -1,670 Descending New York Center
Fri 09:23:42 AM 39.5833 -76.2167 228° Southwest 301 346 15,700 -1,856 Descending Potomac TRACON
Fri 09:24:42 AM 39.5333 -76.3000 232° Southwest 298 343 14,200 -1,550 Descending Potomac TRACON
Fri 09:25:42 AM 39.4667 -76.3833 224° Southwest 287 330 12,600 -1,158 Descending Potomac TRACON
Fri 09:26:36 AM 39.4333 -76.4500 237° Southwest 282 325 12,000 -316 Descending Potomac TRACON
Fri 09:27:36 AM 39.3667 -76.5000 210° Southwest 286 329 12,000  Level Potomac TRACON
Fri 09:28:36 AM 39.3000 -76.5500 210° Southwest 291 335 12,000 -421 Level Potomac TRACON
Fri 09:29:30 AM 39.2333 -76.6167 218° Southwest 290 334 11,200 -1,053 Descending Potomac TRACON
Fri 09:30:30 AM 39.1667 -76.6667 210° Southwest 272 313 10,000 -626 Descending Potomac TRACON
Fri 09:31:25 AM 39.1167 -76.7167 218° Southwest 267 307 10,000 -52 Level Potomac TRACON
Fri 09:32:25 AM 39.0667 -76.7833 226° Southwest 271 312 9,900 -500 Descending Potomac TRACON
Fri 09:33:25 AM 39.0167 -76.8500 226° Southwest 236 272 9,000 -842 Descending Potomac TRACON
Fri 09:34:19 AM 38.9667 -76.9000 218° Southwest 203 234 8,300 -1,150 Descending Potomac TRACON
Fri 09:35:25 AM 38.9167 -76.9333 207° Southwest 208 239 6,700 -1,200 Descending Potomac TRACON
Fri 09:36:19 AM 38.8667 -76.9500 195° South 213 245 5,900 -833 Descending Potomac TRACON
Fri 09:37:13 AM 38.8167 -76.9500 180° South 214 246 5,200 -474 Descending Potomac TRACON
Fri 09:38:13 AM 38.7667 -76.9500 180° South 208 239 5,000 -198 Descending Potomac TRACON
Fri 09:39:14 AM 38.7000 -76.9333 169° South 206 237 4,800 -446 Descending Potomac TRACON
Fri 09:40:14 AM 38.6500 -76.9333 180° South 200 230 4,100 -400 Descending Potomac TRACON
Fri 09:41:14 AM 38.6000 -76.9333 180° South 191 220 4,000 -50 Descending Potomac TRACON
Fri 09:42:14 AM 38.5833 -76.9833 247° West 181 208 4,000  Level Potomac TRACON
Fri 09:43:08 AM 38.6333 -77.0167 332° Northwest 150 173 4,000 -263 Level Potomac TRACON
Fri 09:44:08 AM 38.6667 -77.0167 360° North 152 175 3,500 -600 Descending Potomac TRACON
Fri 09:45:08 AM 38.7167 -77.0333 345° North 146 168 2,800 -700 Descending Potomac TRACON

Login

Don't have an account? Register now (free) for customized features, flight alerts, and more!